createdAt,value
2018-09-17T00:00:51.712Z,68.48
2018-09-17T00:03:19.388Z,68.47
2018-09-17T00:05:47.062Z,67.87
2018-09-17T00:08:14.724Z,68.55
2018-09-17T00:10:42.434Z,67.96
2018-09-17T00:13:10.107Z,68.25
2018-09-17T00:15:37.758Z,68.84
2018-09-17T00:18:05.854Z,69.42
2018-09-17T00:20:33.643Z,69.03
2018-09-17T00:23:01.366Z,69.01
2018-09-17T00:25:29.266Z,69.39
2018-09-17T00:27:57.110Z,69.37
2018-09-17T00:30:24.811Z,69.00
2018-09-17T00:32:52.492Z,69.23
2018-09-17T00:35:20.195Z,69.02
2018-09-17T00:37:47.863Z,68.84
2018-09-17T00:40:15.851Z,69.54
2018-09-17T00:42:43.499Z,68.98
2018-09-17T00:45:11.187Z,69.19
2018-09-17T00:47:39.042Z,68.39
2018-09-17T00:50:06.850Z,68.63
2018-09-17T00:52:34.563Z,68.86
2018-09-17T00:55:02.329Z,68.84
2018-09-17T00:57:30.002Z,69.13
2018-09-17T00:59:57.681Z,69.56
2018-09-17T01:02:25.432Z,69.37
2018-09-17T01:04:53.173Z,69.22
2018-09-17T01:07:20.851Z,69.84
2018-09-17T01:09:48.603Z,69.26
2018-09-17T01:12:16.423Z,69.29
2018-09-17T01:14:44.135Z,70.17
2018-09-17T01:17:11.872Z,69.77
2018-09-17T01:19:39.576Z,69.87
2018-09-17T01:22:10.865Z,69.59
2018-09-17T01:24:39.243Z,69.41
2018-09-17T01:27:06.965Z,70.30
2018-09-17T01:29:34.659Z,69.76
2018-09-17T01:32:02.347Z,70.63
2018-09-17T01:34:30.045Z,70.73
2018-09-17T01:36:58.048Z,70.87
2018-09-17T01:39:25.759Z,70.17
2018-09-17T01:41:53.487Z,70.31
2018-09-17T01:44:21.182Z,70.48
2018-09-17T01:46:48.900Z,70.51
2018-09-17T01:49:16.611Z,70.42
2018-09-17T01:51:44.352Z,70.80
2018-09-17T01:54:12.060Z,70.86
2018-09-17T01:56:39.787Z,70.48
2018-09-17T01:59:07.514Z,70.59
2018-09-17T02:01:35.212Z,70.51
2018-09-17T02:04:02.947Z,70.31
2018-09-17T02:06:30.711Z,70.71
2018-09-17T02:08:59.191Z,71.01
2018-09-17T02:11:26.895Z,70.58
2018-09-17T02:13:54.661Z,70.96
2018-09-17T02:16:22.386Z,70.77
2018-09-17T02:18:50.104Z,70.51
2018-09-17T02:21:17.857Z,70.81
2018-09-17T02:23:48.719Z,71.13
2018-09-17T02:26:16.428Z,71.16
2018-09-17T02:28:44.166Z,71.13
2018-09-17T02:31:12.019Z,70.79
2018-09-17T02:33:39.756Z,71.35
2018-09-17T02:36:07.489Z,71.11
2018-09-17T02:38:35.209Z,71.45
2018-09-17T02:41:03.310Z,71.13
2018-09-17T02:43:31.039Z,71.61
2018-09-17T02:45:58.910Z,71.92
2018-09-17T02:48:26.675Z,72.12
2018-09-17T02:50:54.360Z,71.94
2018-09-17T02:53:22.256Z,71.98
2018-09-17T02:55:49.976Z,71.73
2018-09-17T02:58:17.667Z,72.33
2018-09-17T03:00:45.355Z,71.49
2018-09-17T03:03:13.152Z,72.22
2018-09-17T03:05:40.878Z,72.15
2018-09-17T03:08:08.559Z,72.24
2018-09-17T03:10:36.311Z,71.85
2018-09-17T03:13:04.840Z,72.24
2018-09-17T03:15:51.616Z,72.09
2018-09-17T03:18:37.627Z,72.54
2018-09-17T03:21:06.511Z,72.00
2018-09-17T03:23:35.476Z,71.96
2018-09-17T03:26:03.420Z,72.55
2018-09-17T03:28:31.331Z,72.21
2018-09-17T03:30:59.020Z,72.12
2018-09-17T03:33:27.053Z,72.63
2018-09-17T03:35:54.787Z,72.44
2018-09-17T03:38:42.678Z,72.22
2018-09-17T03:41:11.230Z,72.27
2018-09-17T03:43:40.223Z,72.68
2018-09-17T03:46:07.955Z,72.54
2018-09-17T03:48:36.485Z,73.24
2018-09-17T03:51:05.300Z,73.13
2018-09-17T03:53:33.335Z,72.98
2018-09-17T03:56:01.375Z,72.98
2018-09-17T03:58:29.428Z,72.93
2018-09-17T04:00:57.636Z,73.18
2018-09-17T04:03:25.412Z,72.99
2018-09-17T04:05:53.121Z,72.54
2018-09-17T04:08:20.844Z,72.44
2018-09-17T04:10:48.723Z,72.87
2018-09-17T04:13:16.463Z,73.15
2018-09-17T04:15:44.183Z,72.78
2018-09-17T04:18:12.640Z,72.84
2018-09-17T04:20:40.323Z,72.68
2018-09-17T04:23:08.226Z,72.78
2018-09-17T04:25:36.219Z,72.85
2018-09-17T04:28:04.055Z,72.71
2018-09-17T04:30:31.772Z,73.03
2018-09-17T04:33:00.331Z,73.46
2018-09-17T04:35:28.047Z,73.61
2018-09-17T04:37:55.728Z,73.11
2018-09-17T04:40:23.436Z,73.47
2018-09-17T04:42:51.168Z,73.36
2018-09-17T04:45:18.879Z,72.86
2018-09-17T04:47:50.167Z,73.46
2018-09-17T04:50:18.024Z,73.15
2018-09-17T04:52:45.763Z,73.07
2018-09-17T04:55:13.483Z,73.28
2018-09-17T04:57:41.184Z,72.83
2018-09-17T05:00:08.887Z,73.48
2018-09-17T05:02:36.603Z,73.30
2018-09-17T05:05:04.987Z,73.26
2018-09-17T05:07:32.808Z,73.41
2018-09-17T05:10:00.725Z,73.37
2018-09-17T05:12:28.414Z,73.19
2018-09-17T05:14:56.151Z,72.89
2018-09-17T05:17:23.864Z,73.63
2018-09-17T05:19:51.599Z,73.10
2018-09-17T05:22:19.291Z,73.53
2018-09-17T05:24:46.987Z,73.90
2018-09-17T05:27:14.660Z,73.45
2018-09-17T05:29:42.351Z,73.58
2018-09-17T05:32:10.049Z,73.15
2018-09-17T05:34:37.761Z,73.30
2018-09-17T05:37:05.719Z,73.24
2018-09-17T05:39:33.441Z,72.87
2018-09-17T05:42:01.219Z,73.30
2018-09-17T05:44:29.320Z,73.54
2018-09-17T05:46:57.067Z,73.80
2018-09-17T05:49:24.783Z,73.55
2018-09-17T05:51:52.583Z,73.30
2018-09-17T05:54:20.349Z,72.79
2018-09-17T05:56:48.059Z,72.70
2018-09-17T05:59:15.875Z,73.28
2018-09-17T06:01:43.850Z,72.76
2018-09-17T06:04:11.559Z,72.58
2018-09-17T06:06:39.267Z,72.72
2018-09-17T06:09:09.619Z,72.40
2018-09-17T06:11:37.357Z,72.65
2018-09-17T06:14:05.333Z,72.61
2018-09-17T06:16:33.035Z,72.26
2018-09-17T06:19:00.922Z,72.16
2018-09-17T06:21:28.671Z,72.59
2018-09-17T06:23:56.363Z,71.72
2018-09-17T06:26:27.775Z,71.41
2018-09-17T06:28:55.540Z,71.33
2018-09-17T06:31:23.152Z,72.18
2018-09-17T06:33:50.836Z,72.11
2018-09-17T06:36:18.547Z,71.25
2018-09-17T06:38:46.231Z,71.04
2018-09-17T06:41:13.923Z,71.10
2018-09-17T06:43:41.667Z,71.13
2018-09-17T06:46:09.374Z,71.49
2018-09-17T06:48:37.099Z,71.17
2018-09-17T06:51:05.762Z,70.77
2018-09-17T06:53:33.714Z,69.69
2018-09-17T06:56:01.455Z,69.78
2018-09-17T06:58:29.503Z,70.23
2018-09-17T07:00:57.186Z,70.02
2018-09-17T07:03:24.907Z,68.90
2018-09-17T07:05:52.667Z,69.28
2018-09-17T07:08:20.414Z,68.93
2018-09-17T07:10:48.102Z,69.25
2018-09-17T07:13:15.784Z,68.55
2018-09-17T07:15:43.575Z,68.28
2018-09-17T07:18:11.412Z,68.25
2018-09-17T07:20:39.164Z,67.83
2018-09-17T07:23:07.031Z,67.62
2018-09-17T07:25:34.710Z,67.04
2018-09-17T07:28:02.451Z,65.82
2018-09-17T07:30:30.462Z,65.54
2018-09-17T07:32:58.192Z,65.26
2018-09-17T07:35:25.888Z,65.10
2018-09-17T07:37:53.567Z,64.26
2018-09-17T07:40:21.735Z,63.86
2018-09-17T07:42:49.744Z,64.38
2018-09-17T07:45:17.442Z,63.28
2018-09-17T07:47:48.600Z,62.99
2018-09-17T07:50:16.282Z,62.88
2018-09-17T07:52:43.994Z,63.03
2018-09-17T07:55:11.768Z,62.97
2018-09-17T07:57:39.579Z,62.82
2018-09-17T08:00:07.320Z,61.75
2018-09-17T08:02:35.008Z,60.87
2018-09-17T08:05:02.847Z,61.29
2018-09-17T08:07:30.535Z,60.12
2018-09-17T08:09:58.287Z,59.08
2018-09-17T08:12:25.972Z,58.08
2018-09-17T08:14:53.675Z,57.97
2018-09-17T08:17:21.363Z,58.07
2018-09-17T08:19:49.088Z,55.88
2018-09-17T08:22:16.759Z,55.93
2018-09-17T08:24:44.594Z,57.25
2018-09-17T08:27:12.331Z,56.55
2018-09-17T08:29:40.080Z,54.97
2018-09-17T08:32:07.923Z,55.24
2018-09-17T08:34:36.051Z,54.80
2018-09-17T08:37:03.748Z,53.31
2018-09-17T08:39:31.493Z,51.86
2018-09-17T08:41:59.279Z,52.75
2018-09-17T08:44:27.015Z,51.94
2018-09-17T08:46:54.747Z,50.64
2018-09-17T08:49:22.481Z,49.42
2018-09-17T08:51:50.619Z,48.67
2018-09-17T08:54:18.406Z,48.21
2018-09-17T08:56:54.778Z,49.48
2018-09-17T08:59:28.354Z,49.51
2018-09-17T09:01:59.891Z,49.48
2018-09-17T09:04:33.415Z,48.84
2018-09-17T09:07:06.211Z,46.58
2018-09-17T09:09:34.019Z,47.24
2018-09-17T09:12:07.595Z,47.48
2018-09-17T09:14:39.211Z,45.13
2018-09-17T09:17:12.972Z,46.10
2018-09-17T09:19:40.736Z,45.99
2018-09-17T09:22:08.787Z,45.84
2018-09-17T09:24:36.510Z,45.50
2018-09-17T09:27:04.270Z,45.16
2018-09-17T09:29:32.022Z,44.48
2018-09-17T09:31:59.755Z,44.72
2018-09-17T09:34:27.563Z,45.03
2018-09-17T09:36:55.243Z,43.34
2018-09-17T09:39:22.935Z,44.62
2018-09-17T09:41:50.690Z,43.42
2018-09-17T09:44:18.475Z,44.44
2018-09-17T09:46:46.437Z,41.98
2018-09-17T09:49:14.154Z,40.47
2018-09-17T09:51:41.837Z,40.64
2018-09-17T09:54:10.562Z,41.64
2018-09-17T09:56:38.270Z,40.76
2018-09-17T09:59:06.006Z,39.88
2018-09-17T10:01:39.487Z,38.65
2018-09-17T10:04:13.080Z,40.44
2018-09-17T10:06:40.773Z,40.16
2018-09-17T10:09:14.404Z,39.66
2018-09-17T10:11:47.860Z,37.74
2018-09-17T10:14:21.287Z,38.59
2018-09-17T10:16:54.901Z,39.91
2018-09-17T10:19:24.360Z,37.65
2018-09-17T10:24:26.955Z,37.38
2018-09-17T10:26:58.014Z,35.48
2018-09-17T10:29:25.695Z,35.97
2018-09-17T10:31:53.390Z,35.01
2018-09-17T10:34:21.119Z,34.25
2018-09-17T10:36:48.798Z,34.26
2018-09-17T10:39:17.518Z,33.78
2018-09-17T10:41:45.191Z,32.14
2018-09-17T10:44:13.231Z,33.95
2018-09-17T10:46:40.929Z,33.17
2018-09-17T10:49:08.823Z,33.09
2018-09-17T10:51:36.524Z,32.92
2018-09-17T10:54:04.305Z,30.98
2018-09-17T10:56:32.011Z,29.88
2018-09-17T10:58:59.732Z,29.96
2018-09-17T11:01:27.427Z,30.93
2018-09-17T11:03:55.126Z,31.19
2018-09-17T11:06:22.934Z,30.29
2018-09-17T11:08:50.667Z,29.19
2018-09-17T11:11:18.414Z,29.66
2018-09-17T11:13:46.105Z,32.33
2018-09-17T11:16:13.790Z,32.85
2018-09-17T11:18:41.596Z,32.46
2018-09-17T11:21:09.288Z,30.91
2018-09-17T11:23:36.951Z,30.10
2018-09-17T11:26:04.752Z,30.58
2018-09-17T11:28:32.439Z,28.99
2018-09-17T11:31:00.149Z,30.08
2018-09-17T11:33:27.865Z,27.85
2018-09-17T11:35:56.171Z,29.63
2018-09-17T11:38:24.249Z,29.69
2018-09-17T11:40:51.971Z,30.32
2018-09-17T11:43:20.205Z,30.36
2018-09-17T11:45:48.256Z,30.80
2018-09-17T11:48:16.082Z,29.45
2018-09-17T11:50:47.539Z,29.26
2018-09-17T11:53:15.289Z,29.88
2018-09-17T11:55:43.115Z,28.65
2018-09-17T11:58:10.839Z,29.73
2018-09-17T12:00:44.354Z,27.88
2018-09-17T12:03:17.872Z,27.70
2018-09-17T12:05:51.362Z,26.02
2018-09-17T12:08:19.447Z,26.56
2018-09-17T12:10:47.148Z,26.29
2018-09-17T12:13:14.875Z,25.21
2018-09-17T12:15:43.422Z,26.37
2018-09-17T12:18:12.118Z,26.32
2018-09-17T12:20:40.182Z,25.57
2018-09-17T12:23:08.535Z,24.14
2018-09-17T12:25:36.227Z,26.57
2018-09-17T12:28:04.147Z,26.74
2018-09-17T12:30:31.863Z,26.46
2018-09-17T12:33:00.230Z,26.98
2018-09-17T12:35:27.945Z,26.92
2018-09-17T12:37:55.675Z,25.25
2018-09-17T12:40:24.125Z,25.41
2018-09-17T12:42:51.981Z,25.66
2018-09-17T12:45:20.156Z,26.66
2018-09-17T12:47:47.975Z,25.35
2018-09-17T12:50:15.744Z,25.70
2018-09-17T12:52:43.436Z,25.25
2018-09-17T12:55:11.417Z,24.52
2018-09-17T12:57:39.240Z,25.60
2018-09-17T13:00:07.694Z,25.03
2018-09-17T13:02:35.455Z,23.56
2018-09-17T13:05:03.195Z,25.00
2018-09-17T13:07:30.986Z,26.19
2018-09-17T13:09:58.695Z,24.18
2018-09-17T13:12:26.587Z,25.88
2018-09-17T13:14:54.941Z,26.33
2018-09-17T13:17:22.575Z,26.24
2018-09-17T13:19:50.247Z,25.37
2018-09-17T13:22:17.943Z,25.68
2018-09-17T13:24:45.670Z,25.59
2018-09-17T13:27:13.903Z,23.89
2018-09-17T13:29:41.602Z,24.51
2018-09-17T13:32:09.432Z,24.60
2018-09-17T13:34:37.588Z,23.88
2018-09-17T13:37:05.675Z,24.70
2018-09-17T13:39:33.424Z,25.00
2018-09-17T13:42:01.202Z,25.76
2018-09-17T13:44:29.062Z,24.93
2018-09-17T13:46:56.703Z,26.07
2018-09-17T13:49:24.420Z,25.14
2018-09-17T13:51:52.191Z,24.62
2018-09-17T13:54:19.954Z,24.45
2018-09-17T13:56:47.660Z,23.94
2018-09-17T13:59:15.447Z,23.86
2018-09-17T14:01:43.151Z,25.16
2018-09-17T14:04:11.208Z,25.81
2018-09-17T14:06:38.951Z,26.89
2018-09-17T14:09:09.211Z,25.84
2018-09-17T14:11:37.233Z,26.36
2018-09-17T14:14:05.344Z,27.34
2018-09-17T14:16:33.454Z,27.33
2018-09-17T14:19:01.241Z,26.85
2018-09-17T14:21:29.088Z,26.10
2018-09-17T14:23:56.896Z,27.33
2018-09-17T14:26:25.498Z,27.52
2018-09-17T14:28:53.079Z,26.78
2018-09-17T14:31:25.391Z,26.09
2018-09-17T14:33:53.265Z,27.62
2018-09-17T14:36:21.022Z,27.15
2018-09-17T14:38:48.799Z,27.41
2018-09-17T14:41:16.475Z,27.75
2018-09-17T14:43:44.344Z,27.69
2018-09-17T14:46:12.114Z,29.13
2018-09-17T14:48:39.759Z,28.07
2018-09-17T14:51:07.548Z,29.03
2018-09-17T14:53:35.322Z,27.15
2018-09-17T14:56:03.104Z,28.16
2018-09-17T14:58:30.809Z,28.36
2018-09-17T15:01:06.247Z,28.80
2018-09-17T15:03:34.946Z,30.36
2018-09-17T15:06:02.666Z,28.70
2018-09-17T15:08:30.450Z,28.58
2018-09-17T15:10:58.172Z,28.39
2018-09-17T15:13:25.951Z,31.01
2018-09-17T15:15:54.629Z,31.89
2018-09-17T15:18:22.840Z,30.64
2018-09-17T15:20:50.620Z,28.78
2018-09-17T15:23:18.540Z,30.50
2018-09-17T15:25:46.304Z,31.22
2018-09-17T15:28:14.180Z,29.35
2018-09-17T15:30:42.015Z,30.20
2018-09-17T15:33:09.757Z,30.60
2018-09-17T15:35:37.535Z,29.36
2018-09-17T15:38:05.920Z,29.27
2018-09-17T15:40:33.692Z,30.35
2018-09-17T15:43:02.195Z,30.72
2018-09-17T15:45:30.078Z,34.91
2018-09-17T15:47:57.920Z,31.65
2018-09-17T15:50:25.668Z,33.72
2018-09-17T15:52:53.403Z,34.30
2018-09-17T15:55:21.165Z,32.73
2018-09-17T15:57:49.039Z,32.39
2018-09-17T16:00:16.777Z,34.03
2018-09-17T16:02:44.551Z,34.48
2018-09-17T16:05:13.155Z,35.00
2018-09-17T16:07:40.879Z,34.34
2018-09-17T16:10:08.588Z,33.26
2018-09-17T16:12:36.541Z,32.57
2018-09-17T16:15:04.382Z,33.72
2018-09-17T16:17:32.079Z,32.93
2018-09-17T16:20:00.270Z,32.63
2018-09-17T16:22:27.995Z,31.92
2018-09-17T16:24:55.711Z,32.75
2018-09-17T16:27:23.503Z,32.47
2018-09-17T16:29:51.278Z,32.77
2018-09-17T16:32:19.043Z,32.19
2018-09-17T16:34:46.976Z,33.51
2018-09-17T16:37:14.735Z,33.69
2018-09-17T16:39:42.580Z,35.22
2018-09-17T16:42:10.388Z,34.64
2018-09-17T16:44:38.188Z,35.86
2018-09-17T16:47:05.859Z,35.82
2018-09-17T16:49:33.584Z,36.34
2018-09-17T16:52:01.393Z,37.38
2018-09-17T16:54:29.520Z,38.05
2018-09-17T16:56:57.239Z,37.59
2018-09-17T16:59:25.002Z,38.26
2018-09-17T17:01:52.732Z,39.71
2018-09-17T17:04:20.532Z,39.45
2018-09-17T17:06:48.275Z,39.55
2018-09-17T17:09:16.044Z,40.73
2018-09-17T17:11:43.854Z,41.34
2018-09-17T17:14:11.543Z,41.28
2018-09-17T17:16:39.250Z,41.21
2018-09-17T17:19:07.108Z,40.56
2018-09-17T17:21:34.865Z,41.54
2018-09-17T17:26:37.394Z,40.28
2018-09-17T17:29:05.102Z,41.44
2018-09-17T17:31:32.863Z,41.27
2018-09-17T17:34:00.941Z,41.90
2018-09-17T17:36:28.612Z,42.47
2018-09-17T17:38:56.431Z,43.82
2018-09-17T17:41:24.142Z,43.38
2018-09-17T17:43:51.840Z,44.24
2018-09-17T17:46:19.768Z,45.60
2018-09-17T17:48:47.517Z,45.11
2018-09-17T17:51:15.306Z,45.36
2018-09-17T17:53:43.110Z,46.48
2018-09-17T17:56:11.155Z,46.43
2018-09-17T17:58:38.934Z,46.36
2018-09-17T18:01:06.972Z,46.67
2018-09-17T18:03:34.632Z,46.11
2018-09-17T18:06:02.358Z,46.55
2018-09-17T18:08:30.082Z,46.27
2018-09-17T18:10:57.883Z,45.96
2018-09-17T18:13:25.637Z,45.60
2018-09-17T18:15:54.021Z,46.34
2018-09-17T18:18:21.955Z,46.31
2018-09-17T18:20:49.874Z,46.19
2018-09-17T18:23:17.961Z,46.29
2018-09-17T18:25:45.786Z,46.03
2018-09-17T18:28:13.607Z,45.89
2018-09-17T18:30:41.734Z,46.88
2018-09-17T18:33:09.676Z,46.03
2018-09-17T18:35:37.572Z,46.60
2018-09-17T18:38:05.411Z,46.90
2018-09-17T18:40:33.128Z,46.67
2018-09-17T18:43:01.039Z,45.98
2018-09-17T18:45:28.736Z,46.11
2018-09-17T18:47:56.662Z,46.49
2018-09-17T18:50:24.577Z,45.78
2018-09-17T18:52:52.426Z,46.27
2018-09-17T18:55:20.283Z,46.24
2018-09-17T18:57:48.062Z,46.10
2018-09-17T19:00:16.224Z,46.44
2018-09-17T19:02:43.950Z,46.77
2018-09-17T19:05:11.706Z,47.49
2018-09-17T19:07:39.523Z,47.71
2018-09-17T19:10:07.525Z,47.11
2018-09-17T19:12:35.364Z,47.87
2018-09-17T19:15:09.016Z,47.33
2018-09-17T19:17:40.839Z,46.91
2018-09-17T19:20:10.509Z,47.63
2018-09-17T19:22:44.119Z,46.82
2018-09-17T19:25:13.421Z,47.06
2018-09-17T19:27:47.294Z,47.46
2018-09-17T19:30:15.560Z,47.08
2018-09-17T19:32:43.569Z,46.93
2018-09-17T19:35:11.419Z,47.32
2018-09-17T19:37:44.970Z,47.09
2018-09-17T19:40:16.189Z,47.32
2018-09-17T19:42:45.159Z,47.88
2018-09-17T19:45:19.008Z,47.96
2018-09-17T19:47:47.113Z,47.82
2018-09-17T19:50:20.906Z,47.44
2018-09-17T19:52:48.611Z,47.61
2018-09-17T19:55:16.399Z,47.54
2018-09-17T19:57:50.044Z,48.14
2018-09-17T20:00:17.856Z,48.23
2018-09-17T20:02:45.584Z,47.70
2018-09-17T20:05:19.140Z,47.79
2018-09-17T20:07:47.322Z,48.41
2018-09-17T20:10:15.122Z,48.41
2018-09-17T20:12:42.894Z,48.13
2018-09-17T20:15:11.116Z,47.92
2018-09-17T20:17:38.901Z,48.00
2018-09-17T20:20:06.780Z,48.61
2018-09-17T20:22:34.620Z,48.12
2018-09-17T20:25:02.496Z,48.61
2018-09-17T20:27:30.254Z,48.10
2018-09-17T20:29:58.023Z,47.98
2018-09-17T20:32:26.148Z,48.03
2018-09-17T20:34:53.853Z,48.71
2018-09-17T20:37:21.676Z,48.62
2018-09-17T20:39:49.331Z,49.03
2018-09-17T20:42:17.118Z,49.20
2018-09-17T20:44:44.825Z,49.01
2018-09-17T20:47:12.674Z,48.64
2018-09-17T20:49:40.494Z,49.66
2018-09-17T20:52:08.222Z,49.59
2018-09-17T20:54:35.931Z,49.69
2018-09-17T20:57:03.648Z,49.98
2018-09-17T21:00:10.993Z,49.34
2018-09-17T21:02:42.634Z,49.72
2018-09-17T21:05:10.367Z,49.97
2018-09-17T21:07:38.100Z,49.95
2018-09-17T21:10:06.059Z,49.33
2018-09-17T21:12:33.857Z,50.06
2018-09-17T21:15:01.727Z,49.50
2018-09-17T21:17:29.499Z,50.24
2018-09-17T21:19:57.238Z,50.00
2018-09-17T21:22:24.967Z,49.25
2018-09-17T21:24:52.762Z,49.59
2018-09-17T21:27:20.485Z,49.34
2018-09-17T21:29:48.177Z,50.27
2018-09-17T21:32:15.892Z,49.87
2018-09-17T21:34:43.647Z,49.89
2018-09-17T21:37:11.413Z,50.04
2018-09-17T21:39:39.128Z,50.08
2018-09-17T21:42:06.839Z,50.70
2018-09-17T21:44:34.556Z,50.59
2018-09-17T21:47:02.287Z,50.93
2018-09-17T21:49:30.004Z,50.93
2018-09-17T21:51:57.773Z,51.24
2018-09-17T21:54:25.509Z,51.82
2018-09-17T21:56:53.221Z,51.97
2018-09-17T21:59:20.921Z,52.37
2018-09-17T22:01:48.632Z,52.12
2018-09-17T22:04:16.405Z,52.34
2018-09-17T22:06:44.060Z,51.89
2018-09-17T22:09:11.723Z,52.90
2018-09-17T22:11:39.427Z,52.43
2018-09-17T22:14:07.127Z,53.53
2018-09-17T22:16:34.886Z,52.94
2018-09-17T22:19:02.679Z,53.21
2018-09-17T22:21:30.380Z,53.39
2018-09-17T22:24:01.731Z,53.94
2018-09-17T22:26:29.439Z,53.63
2018-09-17T22:28:57.235Z,53.56
2018-09-17T22:31:24.936Z,54.00
2018-09-17T22:33:52.626Z,54.17
2018-09-17T22:36:20.328Z,53.30
2018-09-17T22:38:48.221Z,53.58
2018-09-17T22:41:16.672Z,53.70
2018-09-17T22:43:44.418Z,53.63
2018-09-17T22:46:12.119Z,54.16
2018-09-17T22:48:39.925Z,53.94
2018-09-17T22:51:08.455Z,53.11
2018-09-17T22:53:36.266Z,53.25
2018-09-17T22:56:03.966Z,52.89
2018-09-17T22:58:31.683Z,53.42
2018-09-17T23:00:59.358Z,53.02
2018-09-17T23:03:27.084Z,53.58
2018-09-17T23:05:54.860Z,52.80
2018-09-17T23:08:22.553Z,52.84
2018-09-17T23:10:50.250Z,52.88
2018-09-17T23:13:18.273Z,52.53
2018-09-17T23:15:46.021Z,52.83
2018-09-17T23:18:13.773Z,53.25
2018-09-17T23:20:41.507Z,52.84
2018-09-17T23:23:09.197Z,53.00
2018-09-17T23:25:36.963Z,53.67
2018-09-17T23:28:04.962Z,52.77
2018-09-17T23:30:43.790Z,52.92
2018-09-17T23:33:11.517Z,53.00
2018-09-17T23:35:39.279Z,53.44
2018-09-17T23:38:06.978Z,53.61
2018-09-17T23:40:34.726Z,52.90
2018-09-17T23:43:02.766Z,53.17
2018-09-17T23:45:36.159Z,53.30
2018-09-17T23:48:04.231Z,53.05
2018-09-17T23:50:31.945Z,53.43
2018-09-17T23:52:59.622Z,53.90
2018-09-17T23:55:27.312Z,54.03
2018-09-17T23:57:54.988Z,54.01
